Terminal Aerodrome Forecast
Issued by NWS

Current Version | Previous Version | Text Only | Print | Product List | Glossary On
Versions: 1 2 3 4 5 6 7 8 9 10 11 12
000
FTUS46 KPDT 180500
TAFALW
TAF
KALW 180521Z 1806/1906 12006KT P6SM SCT140 BKN200
     FM181000 15005KT P6SM SCT090 BKN150
     FM182200 23008G15KT P6SM SCT080 BKN130=

USA.gov is the U.S. government's official web portal to all federal, state and local government web resources and services.